Theodore Francis Green State Airport
KPVD : now visible

Airfield :











YOU CAN JOIN US ON...

 
LOGIN :

Register | Disclaimer

   EN    FR    IT 

 









Legend :    VFR   Marginal VFR   IFR   Intensive IFR   Very Intensive IFR
Visi :
Ceiling :
>= 8 km
>= 3000ft
5 to 8 km
1000 to 3000 ft
1500m to 5 km
500 to 1000 ft
800 to 1500m
200 to 500 ft
< 800m
< 200 ft
Symbols :   Thunderstorms  Fog  Heavy snow  Heavy precipitations  Wind > 20 kt






- Airport Elevation : 55 ft
- IATA code : PVD


KPVD - Theodore Francis Green State

CURRENT METAR :
  • 271751Z 26012G18KT 10SM SCT039 SCT085 BKN090 BKN300 07/M02 A2959 RMK AO2 SLP021 T00671017 10072 20017 58016

EXPIRED METARs :
  • 271651Z 25011KT 10SM FEW025 FEW095 BKN100 06/M02 A2961 RMK AO2 SLP027 T00611017
  • 271551Z 26011KT 10SM FEW025 FEW090 BKN095 05/M02 A2963 RMK AO2 SLP034 T00501017
  • 271451Z 27011KT 10SM FEW020 FEW065 BKN100 04/M01 A2964 RMK AO2 SLP037 T00441011 52001

TAF KPVD
Valid from the 27 at 18:00 until the 28 at 18:00 UTC


271740Z 2718/2818 27011KT P6SM SCT025 BKN100
FM272200 28009KT P6SM SCT090
FM280000 29008KT P6SM FEW200
FM280800 31007KT P6SM FEW250
FM281400 33009KT P6SM SCT200
FM281500 33010KT P6SM SCT120



MET'MAP, your aeronautical weather chart ! - Copyright ORBIFLY December 2007 - Disclaimer

ORBIFLY MET'MAP TEAM :

Programming & Development : Alexandra Zaïnal
Concept & original design : Baudouin d'Aumeries
Assistance for programming : Marc-Olivier Méhu
Technical & hardware support : Manuel Goepfert

Contact : metmap@orbifly.com




SOURCES & CREDITS :

   NOAA       Earth
Advisory